createdAt,value
2022-10-23T00:00:35.167Z,12.63
2022-10-23T00:03:01.868Z,13.07
2022-10-23T00:05:29.178Z,12.97
2022-10-23T00:07:57.615Z,13.53
2022-10-23T00:10:25.313Z,13.70
2022-10-23T00:12:52.161Z,12.90
2022-10-23T00:15:21.324Z,13.10
2022-10-23T00:17:48.246Z,13.60
2022-10-23T00:20:16.205Z,13.57
2022-10-23T00:22:43.731Z,13.87
2022-10-23T00:25:10.958Z,13.43
2022-10-23T00:27:37.589Z,13.77
2022-10-23T00:30:06.012Z,13.70
2022-10-23T00:34:58.981Z,12.50
2022-10-23T00:37:25.440Z,12.80
2022-10-23T00:39:52.010Z,14.27
2022-10-23T00:42:20.325Z,14.30
2022-10-23T00:44:46.799Z,13.90
2022-10-23T00:47:13.730Z,14.17
2022-10-23T00:49:42.761Z,15.37
2022-10-23T00:52:12.908Z,13.63
2022-10-23T00:54:41.481Z,14.17
2022-10-23T00:57:12.242Z,15.97
2022-10-23T00:59:39.436Z,14.40
2022-10-23T01:02:06.977Z,14.47
2022-10-23T01:04:34.213Z,15.00
2022-10-23T01:07:08.394Z,15.93
2022-10-23T01:09:55.263Z,15.23
2022-10-23T01:12:47.129Z,15.17
2022-10-23T01:15:41.027Z,16.37
2022-10-23T01:18:18.104Z,16.83
2022-10-23T01:21:05.472Z,16.57
2022-10-23T01:23:52.158Z,16.63
2022-10-23T01:26:24.661Z,16.30
2022-10-23T01:29:09.516Z,17.53
2022-10-23T01:31:39.764Z,17.37
2022-10-23T01:34:13.388Z,17.10
2022-10-23T01:36:42.008Z,19.07
2022-10-23T01:39:12.830Z,17.17
2022-10-23T01:41:46.750Z,18.23
2022-10-23T01:44:18.789Z,16.17
2022-10-23T01:46:47.087Z,17.80
2022-10-23T01:49:14.280Z,18.93
2022-10-23T01:51:44.846Z,17.73
2022-10-23T01:54:13.822Z,19.20
2022-10-23T01:56:43.430Z,17.90
2022-10-23T01:59:13.823Z,17.87
2022-10-23T02:01:42.408Z,16.67
2022-10-23T02:04:10.739Z,17.77
2022-10-23T02:06:37.188Z,17.73
2022-10-23T02:09:04.722Z,17.23
2022-10-23T02:11:32.497Z,18.20
2022-10-23T02:14:27.220Z,17.63
2022-10-23T02:16:55.351Z,19.00
2022-10-23T02:19:47.769Z,19.57
2022-10-23T02:22:38.634Z,20.80
2022-10-23T02:25:16.783Z,20.07
2022-10-23T02:27:49.367Z,20.80
2022-10-23T02:30:17.686Z,22.70
2022-10-23T02:32:49.822Z,22.23
2022-10-23T02:35:18.364Z,28.17
2022-10-23T02:37:55.828Z,25.47
2022-10-23T02:40:24.452Z,27.13
2022-10-23T02:42:57.332Z,29.17
2022-10-23T02:45:26.888Z,27.87
2022-10-23T02:48:07.017Z,27.97
2022-10-23T02:50:52.084Z,28.27
2022-10-23T02:53:18.469Z,28.90
2022-10-23T02:55:55.884Z,28.80
2022-10-23T02:58:36.088Z,28.37
2022-10-23T03:01:06.649Z,30.43
2022-10-23T03:03:36.653Z,31.10
2022-10-23T03:06:03.738Z,28.13
2022-10-23T03:08:30.183Z,29.30
2022-10-23T03:10:56.809Z,32.20
2022-10-23T03:13:23.581Z,28.90
2022-10-23T03:15:50.144Z,33.00
2022-10-23T03:18:16.628Z,29.50
2022-10-23T03:20:43.065Z,29.83
2022-10-23T03:23:12.265Z,29.60
2022-10-23T03:25:38.713Z,28.60
2022-10-23T03:28:05.146Z,29.80
2022-10-23T03:30:31.606Z,30.80
2022-10-23T03:32:58.208Z,25.47
2022-10-23T03:35:24.651Z,30.33
2022-10-23T03:37:51.052Z,29.20
2022-10-23T03:40:17.500Z,29.17
2022-10-23T03:42:43.949Z,28.13
2022-10-23T03:45:10.620Z,44.17
2022-10-23T03:47:41.235Z,31.10
2022-10-23T03:50:09.472Z,32.97
2022-10-23T03:52:36.301Z,29.80
2022-10-23T03:55:03.694Z,30.40
2022-10-23T03:57:30.149Z,31.47
2022-10-23T03:59:56.664Z,32.93
2022-10-23T04:02:23.310Z,29.90
2022-10-23T04:04:49.855Z,68.37
2022-10-23T04:07:16.392Z,31.87
2022-10-23T04:09:42.812Z,32.07
2022-10-23T04:12:09.589Z,35.70
2022-10-23T04:14:36.100Z,46.20
2022-10-23T04:17:02.673Z,31.23
2022-10-23T04:19:29.146Z,31.73
2022-10-23T04:21:57.102Z,31.47
2022-10-23T04:24:24.570Z,43.43
2022-10-23T04:26:51.404Z,32.00
2022-10-23T04:29:18.546Z,31.03
2022-10-23T04:31:45.017Z,29.17
2022-10-23T04:34:11.456Z,30.80
2022-10-23T04:36:37.924Z,32.40
2022-10-23T04:39:04.367Z,34.23
2022-10-23T04:41:30.925Z,33.70
2022-10-23T04:43:57.364Z,32.47
2022-10-23T04:46:23.828Z,31.70
2022-10-23T04:48:50.290Z,34.67
2022-10-23T04:51:16.748Z,31.00
2022-10-23T04:53:43.207Z,33.17
2022-10-23T04:56:13.250Z,31.27
2022-10-23T04:58:39.774Z,33.53
2022-10-23T05:01:07.413Z,33.53
2022-10-23T05:03:33.987Z,30.03
2022-10-23T05:06:00.460Z,34.83
2022-10-23T05:08:26.901Z,29.67
2022-10-23T05:10:53.340Z,28.73
2022-10-23T05:13:20.280Z,30.90
2022-10-23T05:15:48.693Z,31.53
2022-10-23T05:18:34.253Z,28.60
2022-10-23T05:21:10.707Z,31.93
2022-10-23T05:23:38.385Z,32.70
2022-10-23T05:26:05.207Z,30.83
2022-10-23T05:28:31.668Z,32.80
2022-10-23T05:31:00.257Z,34.13
2022-10-23T05:33:27.266Z,31.80
2022-10-23T05:35:53.768Z,29.30
2022-10-23T05:38:20.229Z,31.93
2022-10-23T05:40:46.798Z,32.73
2022-10-23T05:43:13.217Z,32.10
2022-10-23T05:45:39.705Z,30.30
2022-10-23T05:48:17.005Z,29.50
2022-10-23T05:50:49.260Z,27.77
2022-10-23T05:53:15.949Z,27.97
2022-10-23T05:55:42.410Z,31.60
2022-10-23T05:58:08.878Z,32.13
2022-10-23T06:00:35.305Z,36.57
2022-10-23T06:03:02.893Z,30.17
2022-10-23T06:05:29.543Z,29.13
2022-10-23T06:07:59.846Z,33.73
2022-10-23T06:10:27.385Z,31.77
2022-10-23T06:12:53.926Z,31.03
2022-10-23T06:15:20.417Z,28.43
2022-10-23T06:17:46.892Z,30.37
2022-10-23T06:20:13.426Z,29.57
2022-10-23T06:22:40.187Z,30.63
2022-10-23T06:25:08.083Z,35.13
2022-10-23T06:27:34.575Z,34.47
2022-10-23T06:30:01.092Z,27.13
2022-10-23T06:32:31.889Z,35.87
2022-10-23T06:34:58.328Z,32.93
2022-10-23T06:37:25.398Z,35.77
2022-10-23T06:39:51.865Z,35.17
2022-10-23T06:42:18.338Z,35.80
2022-10-23T06:44:44.763Z,33.90
2022-10-23T06:47:13.062Z,39.37
2022-10-23T06:49:40.514Z,33.90
2022-10-23T06:52:14.238Z,34.17
2022-10-23T06:54:50.431Z,33.03
2022-10-23T06:57:16.906Z,33.23
2022-10-23T06:59:44.245Z,32.87
2022-10-23T07:02:10.739Z,33.63
2022-10-23T07:04:37.189Z,35.73
2022-10-23T07:07:03.649Z,33.73
2022-10-23T07:09:30.241Z,34.30
2022-10-23T07:11:56.784Z,32.27
2022-10-23T07:14:23.313Z,32.43
2022-10-23T07:16:49.772Z,31.87
2022-10-23T07:19:16.218Z,30.57
2022-10-23T07:21:42.681Z,33.87
2022-10-23T07:24:09.139Z,33.90
2022-10-23T07:26:36.380Z,32.70
2022-10-23T07:29:02.979Z,34.87
2022-10-23T07:31:29.530Z,35.73
2022-10-23T07:33:56.031Z,33.30
2022-10-23T07:36:23.015Z,37.13
2022-10-23T07:38:50.681Z,34.63
2022-10-23T07:41:17.495Z,32.87
2022-10-23T07:43:44.041Z,32.23
2022-10-23T07:46:10.508Z,33.40
2022-10-23T07:48:38.068Z,30.97
2022-10-23T07:51:10.799Z,35.57
2022-10-23T07:53:38.192Z,34.43
2022-10-23T07:56:12.669Z,32.10
2022-10-23T07:58:39.140Z,30.33
2022-10-23T08:01:16.223Z,36.33
2022-10-23T08:03:42.755Z,33.30
2022-10-23T08:06:09.211Z,33.33
2022-10-23T08:08:35.687Z,33.87
2022-10-23T08:11:02.201Z,32.33
2022-10-23T08:13:28.694Z,35.60
2022-10-23T08:15:55.961Z,31.83
2022-10-23T08:18:23.151Z,28.33
2022-10-23T08:20:52.345Z,40.30
2022-10-23T08:23:22.987Z,37.77
2022-10-23T08:25:49.470Z,37.07
2022-10-23T08:28:16.610Z,39.00
2022-10-23T08:30:43.026Z,32.93
2022-10-23T08:33:10.097Z,31.23
2022-10-23T08:35:38.396Z,31.33
2022-10-23T08:38:08.224Z,38.10
2022-10-23T08:40:35.558Z,35.90
2022-10-23T08:43:11.152Z,38.10
2022-10-23T08:45:44.163Z,32.57
2022-10-23T08:48:20.556Z,36.33
2022-10-23T08:50:56.649Z,32.70
2022-10-23T08:53:34.900Z,35.27
2022-10-23T08:56:28.713Z,32.70
2022-10-23T08:58:58.885Z,35.20
2022-10-23T09:01:40.895Z,31.73
2022-10-23T09:04:11.537Z,32.50
2022-10-23T09:06:50.269Z,33.57
2022-10-23T09:09:44.754Z,32.30
2022-10-23T09:12:24.340Z,31.97
2022-10-23T09:15:09.427Z,34.67
2022-10-23T09:17:39.532Z,30.27
2022-10-23T09:20:32.188Z,30.57
2022-10-23T09:23:05.156Z,38.93
2022-10-23T09:25:37.703Z,35.37
2022-10-23T09:28:05.891Z,33.13
2022-10-23T09:30:39.693Z,31.77
2022-10-23T09:33:25.889Z,33.67
2022-10-23T09:35:57.542Z,34.83
2022-10-23T09:38:29.358Z,33.60
2022-10-23T09:40:58.957Z,33.33
2022-10-23T09:43:27.815Z,34.57
2022-10-23T09:46:03.293Z,31.17
2022-10-23T09:48:30.284Z,33.87
2022-10-23T09:51:02.613Z,30.07
2022-10-23T09:53:41.039Z,30.30
2022-10-23T09:56:30.809Z,27.67
2022-10-23T09:59:06.729Z,27.97
2022-10-23T10:01:38.759Z,28.40
2022-10-23T10:04:07.246Z,25.77
2022-10-23T10:06:37.096Z,32.87
2022-10-23T10:09:08.604Z,27.93
2022-10-23T10:11:48.294Z,26.87
2022-10-23T10:14:32.969Z,29.30
2022-10-23T10:17:24.290Z,28.80
2022-10-23T10:20:19.522Z,24.90
2022-10-23T10:22:55.236Z,23.63
2022-10-23T10:25:29.309Z,20.80
2022-10-23T10:28:01.811Z,25.93
2022-10-23T10:30:37.309Z,21.70
2022-10-23T10:33:14.489Z,24.20
2022-10-23T10:35:49.601Z,24.30
2022-10-23T10:38:23.009Z,21.57
2022-10-23T10:41:26.766Z,20.57
2022-10-23T10:44:21.472Z,22.43
2022-10-23T10:47:12.135Z,19.73
2022-10-23T10:49:42.688Z,19.03
2022-10-23T10:52:27.445Z,20.57
2022-10-23T10:54:53.928Z,20.57
2022-10-23T10:57:47.612Z,18.47
2022-10-23T11:00:15.845Z,19.40
2022-10-23T11:02:55.026Z,17.27
2022-10-23T11:05:34.979Z,14.30
2022-10-23T11:08:09.580Z,16.37
2022-10-23T11:10:36.478Z,13.50
2022-10-23T11:13:02.998Z,15.57
2022-10-23T11:15:36.397Z,13.93
2022-10-23T11:18:07.271Z,13.07
2022-10-23T11:20:52.776Z,13.23
2022-10-23T11:23:40.891Z,11.97
2022-10-23T11:26:38.675Z,12.70
2022-10-23T11:29:23.404Z,11.27
2022-10-23T11:32:21.081Z,11.90
2022-10-23T11:35:19.711Z,11.57
2022-10-23T11:37:57.860Z,10.63
2022-10-23T11:40:25.026Z,9.70
2022-10-23T11:42:51.867Z,9.03
2022-10-23T11:45:34.403Z,9.10
2022-10-23T11:48:19.755Z,9.00
2022-10-23T11:50:46.243Z,7.97
2022-10-23T11:53:26.728Z,8.20
2022-10-23T11:56:16.532Z,8.27
2022-10-23T11:58:47.373Z,8.87
2022-10-23T12:01:24.454Z,7.37
2022-10-23T12:04:00.710Z,7.63
2022-10-23T12:06:38.220Z,6.87
2022-10-23T12:09:08.319Z,7.10
2022-10-23T12:11:42.183Z,7.40
2022-10-23T12:14:38.337Z,6.90
2022-10-23T12:17:23.056Z,6.97
2022-10-23T12:20:13.898Z,5.97
2022-10-23T12:23:07.865Z,6.13
2022-10-23T12:25:34.279Z,5.90
2022-10-23T12:28:10.481Z,6.90
2022-10-23T12:30:52.471Z,6.27
2022-10-23T12:33:46.929Z,5.43
2022-10-23T12:36:42.383Z,6.60
2022-10-23T12:39:32.086Z,5.90
2022-10-23T12:42:00.201Z,6.27
2022-10-23T12:44:27.247Z,5.30
2022-10-23T12:46:58.690Z,5.77
2022-10-23T12:49:27.463Z,5.30
2022-10-23T12:52:00.621Z,4.83
2022-10-23T12:54:27.770Z,5.43
2022-10-23T12:56:54.680Z,5.90
2022-10-23T12:59:26.463Z,5.60
2022-10-23T13:01:54.514Z,5.30
2022-10-23T13:04:33.911Z,5.00
2022-10-23T13:07:02.422Z,5.30
2022-10-23T13:09:32.613Z,4.87
2022-10-23T13:12:01.131Z,5.10
2022-10-23T13:14:39.338Z,4.67
2022-10-23T13:17:11.270Z,4.73
2022-10-23T13:19:38.032Z,5.27
2022-10-23T13:22:14.584Z,4.47
2022-10-23T13:24:41.135Z,5.07
2022-10-23T13:27:39.997Z,5.07
2022-10-23T13:30:30.876Z,5.53
2022-10-23T13:32:57.437Z,4.93
2022-10-23T13:35:24.437Z,4.67
2022-10-23T13:37:51.234Z,5.27
2022-10-23T13:40:26.561Z,7.10
2022-10-23T13:42:54.520Z,6.67
2022-10-23T13:45:23.798Z,6.37
2022-10-23T13:47:50.530Z,6.43
2022-10-23T13:50:17.557Z,5.63
2022-10-23T13:52:44.101Z,5.13
2022-10-23T13:55:18.960Z,5.10
2022-10-23T13:57:45.587Z,4.67
2022-10-23T14:00:12.684Z,4.60
2022-10-23T14:02:39.227Z,4.97
2022-10-23T14:05:05.771Z,4.97
2022-10-23T14:07:32.226Z,4.57
2022-10-23T14:09:58.779Z,5.00
2022-10-23T14:12:25.358Z,5.30
2022-10-23T14:14:52.561Z,5.87
2022-10-23T14:17:23.132Z,5.30
2022-10-23T14:19:50.227Z,4.97
2022-10-23T14:22:16.792Z,4.67
2022-10-23T14:24:43.215Z,5.03
2022-10-23T14:27:09.663Z,4.40
2022-10-23T14:29:36.116Z,4.80
2022-10-23T14:32:02.553Z,4.60
2022-10-23T14:34:29.140Z,5.07
2022-10-23T14:37:08.063Z,5.63
2022-10-23T14:39:35.095Z,5.30
2022-10-23T14:42:01.620Z,5.53
2022-10-23T14:44:28.181Z,5.47
2022-10-23T14:46:54.789Z,4.90
2022-10-23T14:49:21.337Z,4.47
2022-10-23T14:51:47.802Z,4.40
2022-10-23T14:54:15.779Z,3.70
2022-10-23T14:56:42.261Z,3.70
2022-10-23T14:59:10.687Z,4.50
2022-10-23T15:01:45.198Z,4.73
2022-10-23T15:04:14.361Z,3.87
2022-10-23T15:06:41.672Z,4.20
2022-10-23T15:09:08.173Z,4.33
2022-10-23T15:11:35.676Z,3.30
2022-10-23T15:14:02.147Z,3.87
2022-10-23T15:16:28.695Z,4.20
2022-10-23T15:18:55.154Z,4.27
2022-10-23T15:21:21.919Z,4.27
2022-10-23T15:23:48.876Z,4.20
2022-10-23T15:26:21.115Z,3.70
2022-10-23T15:28:48.480Z,4.20
2022-10-23T15:31:41.022Z,4.23
2022-10-23T15:34:18.961Z,4.63
2022-10-23T15:36:47.060Z,4.30
2022-10-23T15:39:16.074Z,4.67
2022-10-23T15:41:43.657Z,4.63
2022-10-23T15:44:13.653Z,4.87
2022-10-23T15:46:40.230Z,4.60
2022-10-23T15:49:08.524Z,4.90
2022-10-23T15:51:36.863Z,5.33
2022-10-23T15:54:05.442Z,5.40
2022-10-23T15:56:34.146Z,4.70
2022-10-23T15:59:00.815Z,4.37
2022-10-23T16:01:28.857Z,4.30
2022-10-23T16:03:55.616Z,4.00
2022-10-23T16:06:22.146Z,4.50
2022-10-23T16:08:48.808Z,4.50
2022-10-23T16:11:23.831Z,5.57
2022-10-23T16:13:51.014Z,5.20
2022-10-23T16:16:17.959Z,4.73
2022-10-23T16:18:44.784Z,5.20
2022-10-23T16:21:18.631Z,6.37
2022-10-23T16:23:45.273Z,6.50
2022-10-23T16:26:12.114Z,6.63
2022-10-23T16:28:38.617Z,6.47
2022-10-23T16:31:16.484Z,6.77
2022-10-23T16:33:46.289Z,7.03
2022-10-23T16:36:12.898Z,6.20
2022-10-23T16:38:39.355Z,6.73
2022-10-23T16:41:07.135Z,7.50
2022-10-23T16:43:33.883Z,8.07
2022-10-23T16:46:14.744Z,6.70
2022-10-23T16:48:41.897Z,6.30
2022-10-23T16:51:13.867Z,6.50
2022-10-23T16:53:40.980Z,7.53
2022-10-23T16:56:08.963Z,7.67
2022-10-23T16:58:36.022Z,7.63
2022-10-23T17:01:05.985Z,7.63
2022-10-23T17:03:37.948Z,7.53
2022-10-23T17:06:08.877Z,7.60
2022-10-23T17:08:37.601Z,7.13
2022-10-23T17:11:25.395Z,7.17
2022-10-23T17:13:58.488Z,7.00
2022-10-23T17:16:27.835Z,7.73
2022-10-23T17:18:54.779Z,7.57
2022-10-23T17:21:22.389Z,6.50
2022-10-23T17:23:49.357Z,7.30
2022-10-23T17:26:18.718Z,7.37
2022-10-23T17:28:45.414Z,6.77
2022-10-23T17:31:23.565Z,7.13
2022-10-23T17:33:52.783Z,7.30
2022-10-23T17:36:20.842Z,7.30
2022-10-23T17:38:47.950Z,6.73
2022-10-23T17:41:16.475Z,9.33
2022-10-23T17:43:43.683Z,11.07
2022-10-23T17:46:11.996Z,10.87
2022-10-23T17:48:43.516Z,10.80
2022-10-23T17:51:14.107Z,8.87
2022-10-23T17:53:42.973Z,7.60
2022-10-23T17:56:11.484Z,6.63
2022-10-23T17:58:38.339Z,7.40
2022-10-23T18:01:09.201Z,6.93
2022-10-23T18:03:37.049Z,6.87
2022-10-23T18:06:15.493Z,7.30
2022-10-23T18:08:42.801Z,7.47
2022-10-23T18:11:15.381Z,6.57
2022-10-23T18:13:41.856Z,6.57
2022-10-23T18:16:11.275Z,6.57
2022-10-23T18:18:39.208Z,7.47
2022-10-23T18:21:06.439Z,6.80
2022-10-23T18:23:33.398Z,7.63
2022-10-23T18:26:01.150Z,6.87
2022-10-23T18:28:28.198Z,8.03
2022-10-23T18:30:56.972Z,6.83
2022-10-23T18:33:23.977Z,7.90
2022-10-23T18:35:50.693Z,7.77
2022-10-23T18:38:17.177Z,7.40
2022-10-23T18:40:43.917Z,7.30
2022-10-23T18:43:14.915Z,8.13
2022-10-23T18:45:42.704Z,7.90
2022-10-23T18:48:09.164Z,8.20
2022-10-23T18:50:37.121Z,9.80
2022-10-23T18:53:04.044Z,9.07
2022-10-23T18:55:30.610Z,8.37
2022-10-23T18:57:57.131Z,8.30
2022-10-23T19:00:23.601Z,8.43
2022-10-23T19:02:52.338Z,8.37
2022-10-23T19:05:19.384Z,7.97
2022-10-23T19:07:46.371Z,8.77
2022-10-23T19:10:15.952Z,7.60
2022-10-23T19:12:42.987Z,6.77
2022-10-23T19:15:10.110Z,7.50
2022-10-23T19:17:37.089Z,7.20
2022-10-23T19:20:11.523Z,6.50
2022-10-23T19:22:41.064Z,7.33
2022-10-23T19:25:15.132Z,6.10
2022-10-23T19:27:43.683Z,6.27
2022-10-23T19:30:13.667Z,5.90
2022-10-23T19:32:41.780Z,5.70
2022-10-23T19:35:08.937Z,6.20
2022-10-23T19:37:35.447Z,5.90
2022-10-23T19:40:06.512Z,5.87
2022-10-23T19:42:34.025Z,6.33
2022-10-23T19:45:00.676Z,5.80
2022-10-23T19:47:27.174Z,6.30
2022-10-23T19:49:53.630Z,6.83
2022-10-23T19:52:22.193Z,5.87
2022-10-23T19:54:49.307Z,5.90
2022-10-23T19:57:18.065Z,6.00
2022-10-23T19:59:51.019Z,5.97
2022-10-23T20:02:19.197Z,6.20
2022-10-23T20:04:46.249Z,5.57
2022-10-23T20:07:13.338Z,5.57
2022-10-23T20:09:40.100Z,5.43
2022-10-23T20:12:06.835Z,5.47
2022-10-23T20:14:33.559Z,5.37
2022-10-23T20:17:00.171Z,5.23
2022-10-23T20:19:26.643Z,5.10
2022-10-23T20:21:53.329Z,5.00
2022-10-23T20:24:20.530Z,5.60
2022-10-23T20:26:52.665Z,5.47
2022-10-23T20:29:19.670Z,4.83
2022-10-23T20:31:46.353Z,5.20
2022-10-23T20:34:13.117Z,4.77
2022-10-23T20:36:45.577Z,5.00
2022-10-23T20:39:16.265Z,5.00
2022-10-23T20:41:44.025Z,4.83
2022-10-23T20:44:13.062Z,4.87
2022-10-23T20:46:39.925Z,4.90
2022-10-23T20:49:06.485Z,4.70
2022-10-23T20:51:33.147Z,4.83
2022-10-23T20:53:59.613Z,4.40
2022-10-23T20:56:32.269Z,4.90
2022-10-23T20:58:59.957Z,4.87
2022-10-23T21:01:26.801Z,4.63
2022-10-23T21:03:57.052Z,4.90
2022-10-23T21:06:25.139Z,4.70
2022-10-23T21:09:00.799Z,4.40
2022-10-23T21:11:27.436Z,4.67
2022-10-23T21:13:56.934Z,4.43
2022-10-23T21:16:28.485Z,4.47
2022-10-23T21:18:56.845Z,4.57
2022-10-23T21:21:24.226Z,4.37
2022-10-23T21:23:51.865Z,4.50
2022-10-23T21:26:19.644Z,4.40
2022-10-23T21:28:55.633Z,4.37
2022-10-23T21:31:27.872Z,4.27
2022-10-23T21:33:54.365Z,3.63
2022-10-23T21:36:23.093Z,4.13
2022-10-23T21:38:51.902Z,4.20
2022-10-23T21:41:21.804Z,3.90
2022-10-23T21:43:48.486Z,4.73
2022-10-23T21:46:17.664Z,4.70
2022-10-23T21:48:44.335Z,4.67
2022-10-23T21:51:37.189Z,4.20
2022-10-23T21:54:08.736Z,4.63
2022-10-23T21:56:47.439Z,4.20
2022-10-23T21:59:16.523Z,4.23
2022-10-23T22:01:47.579Z,4.77
2022-10-23T22:04:18.492Z,5.17
2022-10-23T22:06:46.190Z,4.63
2022-10-23T22:09:15.422Z,4.60
2022-10-23T22:11:42.377Z,4.50
2022-10-23T22:14:08.867Z,4.40
2022-10-23T22:16:35.341Z,4.83
2022-10-23T22:19:02.321Z,4.30
2022-10-23T22:21:29.774Z,4.60
2022-10-23T22:23:57.814Z,4.40
2022-10-23T22:26:32.865Z,4.47
2022-10-23T22:29:03.123Z,4.20
2022-10-23T22:31:31.617Z,4.10
2022-10-23T22:33:58.653Z,4.70
2022-10-23T22:36:25.497Z,4.50
2022-10-23T22:38:52.382Z,4.47
2022-10-23T22:41:19.160Z,4.83
2022-10-23T22:43:45.869Z,4.40
2022-10-23T22:46:17.333Z,4.13
2022-10-23T22:48:44.534Z,3.60
2022-10-23T22:51:13.494Z,4.30
2022-10-23T22:53:40.019Z,4.50
2022-10-23T22:56:08.106Z,4.40
2022-10-23T22:58:35.127Z,4.13
2022-10-23T23:01:23.979Z,4.27
2022-10-23T23:03:51.428Z,4.73
2022-10-23T23:06:19.287Z,4.10
2022-10-23T23:08:46.222Z,4.30
2022-10-23T23:11:14.632Z,4.10
2022-10-23T23:13:41.583Z,4.20
2022-10-23T23:16:08.571Z,4.30
2022-10-23T23:18:35.131Z,4.23
2022-10-23T23:21:02.771Z,4.40
2022-10-23T23:23:29.894Z,4.23
2022-10-23T23:25:56.738Z,4.10
2022-10-23T23:28:23.644Z,4.13
2022-10-23T23:30:50.167Z,4.00
2022-10-23T23:33:22.299Z,4.00
2022-10-23T23:35:48.725Z,3.83
2022-10-23T23:38:15.213Z,4.57
2022-10-23T23:40:51.304Z,4.70
2022-10-23T23:43:18.064Z,4.20
2022-10-23T23:45:44.572Z,4.80
2022-10-23T23:48:11.108Z,4.37
2022-10-23T23:50:37.964Z,4.57
2022-10-23T23:53:04.423Z,4.80
2022-10-23T23:55:30.884Z,4.17
2022-10-23T23:57:57.360Z,4.67
